Аэропорт
Междунаро́дный аэропо́рт Суна́н (ZKPY)

 ZKPY / FNJ

Korea, Democratic Peoples Republic of
KP-PYO
Сунан
 39.22410, 125.67000  / 117 ft

 TAF ZKPY 180510Z 1806/1906 32005MPS CAVOK TX25/1806Z TN14/1821Z

2020 © VATRUS division (Privacy Policy)